Time;durP1;ratioP1;P1;durP2;ratioP2;P2;SDS_P1;SDS_P2;PMS_P1;PMS_P2;Temp;Humidity;BMP_temperature;BMP_pressure;BME280_temperature;BME280_humidity;BME280_pressure;Samples;Min_cycle;Max_cycle;Signal;HPM_P1;HPM_P2
2021/12/02 01:06:30;;;;;;;;;;;8.50;69.40;;;;;;1078353;54;20400;-76
2021/12/02 01:08:12;;;;;;;5.25;3.72;;;10.60;74.70;;;;;;1081483;46;19958;-72
2021/12/02 01:09:53;;;;;;;7.93;3.88;;;10.40;73.80;;;;;;1081662;46;20034;-74
2021/12/02 01:11:35;;;;;;;3.72;3.30;;;10.40;73.10;;;;;;1081471;47;20585;-73
2021/12/02 01:13:16;;;;;;;7.57;4.03;;;10.50;72.70;;;;;;1081621;47;20038;-72
2021/12/02 01:14:58;;;;;;;7.63;3.47;;;10.50;72.40;;;;;;1081644;46;20587;-74
2021/12/02 01:16:39;;;;;;;6.57;4.55;;;10.50;72.00;;;;;;1081847;47;20069;-72
2021/12/02 01:18:21;;;;;;;6.15;4.25;;;10.50;71.80;;;;;;1081807;47;20050;-71
2021/12/02 01:20:03;;;;;;;5.90;3.90;;;10.50;71.60;;;;;;1081958;47;20038;-71
2021/12/02 01:21:47;;;;;;;5.22;3.90;;;10.50;71.50;;;;;;1081912;47;20038;-72
2021/12/02 01:23:31;;;;;;;4.45;3.45;;;10.50;71.40;;;;;;1081760;47;20031;-71
2021/12/02 01:25:13;;;;;;;6.45;4.00;;;10.40;71.30;;;;;;1082278;39;20477;-71
2021/12/02 01:26:55;;;;;;;5.95;4.00;;;10.40;71.30;;;;;;1082148;46;20030;-72
2021/12/02 01:28:37;;;;;;;9.30;4.28;;;10.40;71.40;;;;;;1082030;47;20133;-74
2021/12/02 01:30:18;;;;;;;5.80;4.00;;;10.40;71.50;;;;;;1081685;47;20034;-72
2021/12/02 01:32:05;;;;;;;5.82;4.35;;;10.40;71.40;;;;;;1082039;47;20061;-72
2021/12/02 01:33:46;;;;;;;3.95;3.55;;;10.30;71.30;;;;;;1082207;46;20050;-72
2021/12/02 01:35:29;;;;;;;6.78;3.90;;;10.30;71.30;;;;;;1081738;47;20050;-71
2021/12/02 01:37:11;;;;;;;5.55;4.22;;;10.30;71.40;;;;;;1081313;47;20073;-72
2021/12/02 01:38:53;;;;;;;5.90;3.70;;;10.30;71.40;;;;;;1082004;47;20030;-71
2021/12/02 01:40:34;;;;;;;6.18;4.25;;;10.30;71.40;;;;;;1081983;47;20049;-71
2021/12/02 01:42:24;;;;;;;8.20;4.13;;;10.20;71.40;;;;;;1081464;47;20042;-72
2021/12/02 01:44:08;;;;;;;;;;;10.20;71.50;;;;;;1081682;47;20078;-76
2021/12/02 01:45:49;;;;;;;6.35;3.42;;;10.20;71.90;;;;;;1081634;47;19958;-73
2021/12/02 01:47:33;;;;;;;6.22;4.35;;;10.30;71.50;;;;;;1081488;47;20031;-72
2021/12/02 01:49:16;;;;;;;10.75;4.18;;;10.20;71.40;;;;;;1081990;47;20129;-72
2021/12/02 01:51:06;;;;;;;5.05;3.58;;;10.20;71.40;;;;;;1081918;47;20041;-71
2021/12/02 01:52:54;;;;;;;6.78;3.65;;;10.20;71.60;;;;;;1081766;47;20058;-71
2021/12/02 01:54:42;;;;;;;6.88;3.85;;;10.20;71.60;;;;;;1081855;47;20539;-71
2021/12/02 01:56:27;;;;;;;4.65;3.40;;;10.20;71.60;;;;;;1081800;47;20034;-71
2021/12/02 01:58:15;;;;;;;5.65;3.53;;;10.10;71.60;;;;;;1082392;39;20443;-72
2021/12/02 02:00:08;;;;;;;3.08;2.75;;;10.20;71.60;;;;;;1082070;47;20081;-74
2021/12/02 02:01:52;;;;;;;5.53;3.25;;;10.10;71.50;;;;;;1081884;47;20039;-71
2021/12/02 02:03:33;;;;;;;5.93;3.30;;;10.20;71.40;;;;;;1081488;54;20042;-75
2021/12/02 02:05:16;;;;;;;3.70;3.33;;;10.20;71.40;;;;;;1082023;47;20550;-71
2021/12/02 02:07:06;;;;;;;4.97;3.25;;;10.10;71.40;;;;;;1081652;47;20045;-70
2021/12/02 02:08:48;;;;;;;;;;;10.10;71.30;;;;;;1082228;47;20042;-72
2021/12/02 02:10:33;;;;;;;5.47;3.03;;;10.20;71.70;;;;;;1081794;46;19939;-72
2021/12/02 02:12:15;;;;;;;5.53;3.22;;;10.10;71.00;;;;;;1082153;46;20042;-72
2021/12/02 02:13:58;;;;;;;6.07;3.03;;;10.10;71.00;;;;;;1082438;46;20046;-73
2021/12/02 02:15:44;;;;;;;3.60;2.78;;;10.20;71.70;;;;;;1081816;46;20040;-72
2021/12/02 02:17:29;;;;;;;4.22;2.70;;;10.10;70.90;;;;;;1081531;47;20034;-70
2021/12/02 02:19:12;;;;;;;7.50;2.85;;;10.10;71.00;;;;;;1082683;46;20061;-71
2021/12/02 02:21:00;;;;;;;4.57;2.63;;;10.10;71.10;;;;;;1082046;46;20565;-72
2021/12/02 02:22:41;;;;;;;4.97;2.75;;;10.10;71.20;;;;;;1082431;46;20045;-72
2021/12/02 02:24:23;;;;;;;5.38;2.83;;;10.10;71.20;;;;;;1082470;46;20045;-73
2021/12/02 02:26:06;;;;;;;7.63;3.13;;;10.10;71.20;;;;;;1082432;47;20065;-71
2021/12/02 02:27:47;;;;;;;3.53;2.60;;;10.00;71.20;;;;;;1081838;46;20137;-71
2021/12/02 02:29:29;;;;;;;5.28;2.97;;;10.10;71.20;;;;;;1082143;47;20038;-71
2021/12/02 02:31:10;;;;;;;3.72;2.63;;;10.00;71.20;;;;;;1081855;46;20065;-75
2021/12/02 02:32:51;;;;;;;4.25;2.60;;;10.00;71.20;;;;;;1082422;46;20034;-71
2021/12/02 02:34:32;;;;;;;4.82;2.40;;;10.00;71.30;;;;;;1082192;46;20038;-72
2021/12/02 02:36:14;;;;;;;6.03;2.63;;;10.00;71.20;;;;;;1082215;46;20042;-74
2021/12/02 02:37:55;;;;;;;5.45;2.70;;;10.00;71.10;;;;;;1081928;47;20048;-72
2021/12/02 02:39:38;;;;;;;3.78;2.10;;;10.00;71.20;;;;;;1081806;46;20050;-72
2021/12/02 02:41:20;;;;;;;4.05;2.38;;;10.00;71.30;;;;;;1081629;46;20038;-71
2021/12/02 02:43:08;;;;;;;4.28;2.25;;;10.00;71.30;;;;;;1081926;46;20034;-74
2021/12/02 02:44:51;;;;;;;6.32;2.65;;;10.00;71.20;;;;;;1082178;46;20041;-76
2021/12/02 02:46:34;;;;;;;6.00;2.53;;;10.00;71.20;;;;;;1081995;46;20042;-72
2021/12/02 02:48:16;;;;;;;4.10;2.25;;;10.00;71.20;;;;;;1082010;47;20042;-75
2021/12/02 02:49:57;;;;;;;6.63;2.58;;;10.00;71.30;;;;;;1081771;46;20594;-71
2021/12/02 02:51:40;;;;;;;4.40;2.53;;;10.00;71.20;;;;;;1081740;47;20061;-71
2021/12/02 02:53:24;;;;;;;2.83;2.17;;;10.00;71.30;;;;;;1081900;54;20034;-74
2021/12/02 02:55:06;;;;;;;5.85;2.70;;;10.00;71.30;;;;;;1081683;47;20068;-72
2021/12/02 02:57:05;;;;;;;5.35;2.65;;;10.00;71.40;;;;;;1081875;46;20035;-72
2021/12/02 03:00:57;;;;;;;6.57;2.58;;;10.00;71.30;;;;;;1081944;47;20090;-71
2021/12/02 03:02:57;;;;;;;6.50;3.20;;;10.00;71.20;;;;;;1082080;46;20041;-73
2021/12/02 03:04:56;;;;;;;8.05;3.80;;;10.00;71.10;;;;;;1082761;39;20438;-72
2021/12/02 03:08:40;;;;;;;5.88;3.08;;;10.00;71.00;;;;;;1082214;46;20161;-70
2021/12/02 03:10:44;;;;;;;4.70;3.30;;;10.00;71.10;;;;;;1081828;46;20038;-72
2021/12/02 03:12:38;;;;;;;5.43;3.40;;;10.00;71.10;;;;;;1081860;46;20040;-72
2021/12/02 03:14:28;;;;;;;3.17;2.88;;;10.00;71.10;;;;;;1081464;47;20038;-71
2021/12/02 03:18:09;;;;;;;7.13;2.67;;;10.00;71.20;;;;;;1082237;39;20535;-71
2021/12/02 03:19:51;;;;;;;3.10;2.35;;;9.90;71.00;;;;;;1081556;47;20054;-72
2021/12/02 03:21:32;;;;;;;3.65;2.10;;;9.90;71.00;;;;;;1082188;39;20451;-71
2021/12/02 03:23:13;;;;;;;3.17;1.80;;;9.90;71.10;;;;;;1081931;47;20038;-72
2021/12/02 03:24:55;;;;;;;3.00;1.50;;;9.90;70.90;;;;;;1081794;46;20042;-71
2021/12/02 03:26:36;;;;;;;2.78;1.52;;;9.90;70.70;;;;;;1081424;46;20034;-72
2021/12/02 03:28:18;;;;;;;2.95;1.50;;;9.90;70.50;;;;;;1081762;46;20581;-72
2021/12/02 03:29:59;;;;;;;3.63;1.30;;;9.90;70.50;;;;;;1081766;47;20039;-72
2021/12/02 03:31:41;;;;;;;5.22;1.70;;;9.90;70.50;;;;;;1081660;46;20154;-72
2021/12/02 03:33:22;;;;;;;3.92;1.58;;;9.90;70.40;;;;;;1081833;47;20042;-71
2021/12/02 03:35:04;;;;;;;1.52;1.35;;;9.80;70.40;;;;;;1081794;46;20085;-72
2021/12/02 03:36:46;;;;;;;2.72;1.58;;;9.80;70.40;;;;;;1081900;46;20034;-71
2021/12/02 03:38:27;;;;;;;3.35;1.30;;;9.80;70.50;;;;;;1081934;46;20042;-73
2021/12/02 03:40:09;;;;;;;2.15;1.50;;;9.80;70.40;;;;;;1081985;46;20034;-71
2021/12/02 03:41:50;;;;;;;1.75;1.42;;;9.80;70.50;;;;;;1081722;47;20605;-74
2021/12/02 03:43:43;;;;;;;1.65;1.27;;;9.80;70.40;;;;;;1082013;46;20038;-72
2021/12/02 03:45:25;;;;;;;3.15;1.40;;;9.80;70.50;;;;;;1082107;46;20031;-71
2021/12/02 03:47:06;;;;;;;4.68;1.55;;;9.80;70.70;;;;;;1081403;46;20038;-72
2021/12/02 03:48:49;;;;;;;3.60;1.73;;;9.70;70.60;;;;;;1081893;47;20076;-75
2021/12/02 03:50:30;;;;;;;3.63;1.50;;;9.80;70.70;;;;;;1082167;46;20035;-72
2021/12/02 03:52:11;;;;;;;3.53;1.50;;;9.70;70.60;;;;;;1082141;39;20837;-71
2021/12/02 03:53:53;;;;;;;2.47;1.40;;;9.70;70.40;;;;;;1081938;46;20061;-73
2021/12/02 03:55:34;;;;;;;4.13;1.67;;;9.70;70.30;;;;;;1082201;46;20571;-71
2021/12/02 03:57:15;;;;;;;5.50;1.85;;;9.70;70.10;;;;;;1081690;46;20045;-72
2021/12/02 03:58:57;;;;;;;2.13;2.03;;;9.70;70.00;;;;;;1081990;47;20030;-71
2021/12/02 04:00:39;;;;;;;1.77;1.67;;;9.60;70.00;;;;;;1082253;46;20065;-72
2021/12/02 04:02:20;;;;;;;1.95;1.83;;;9.60;69.90;;;;;;1081945;47;20034;-72
2021/12/02 04:04:01;;;;;;;2.55;1.70;;;9.60;69.80;;;;;;1082142;46;20150;-71
2021/12/02 04:05:43;;;;;;;3.72;2.15;;;9.60;69.90;;;;;;1082073;46;20057;-73
2021/12/02 04:07:26;;;;;;;2.00;1.90;;;9.50;70.10;;;;;;1081640;46;20058;-74
2021/12/02 04:09:17;;;;;;;4.47;2.65;;;9.50;70.20;;;;;;1082204;46;20034;-71
2021/12/02 04:14:46;;;;;;;3.55;3.20;;;9.50;71.00;;;;;;1082090;46;19985;-72
2021/12/02 04:16:30;;;;;;;6.63;4.10;;;9.50;70.50;;;;;;1082022;47;20050;-75
2021/12/02 04:18:11;;;;;;;6.93;4.05;;;9.50;70.30;;;;;;1082202;39;20423;-73
2021/12/02 04:19:53;;;;;;;7.35;4.75;;;9.40;70.30;;;;;;1081998;46;20034;-73
2021/12/02 04:21:34;;;;;;;5.45;4.35;;;9.40;70.30;;;;;;1081915;46;20058;-72
2021/12/02 04:23:15;;;;;;;7.72;5.28;;;9.40;70.30;;;;;;1082244;46;20577;-71
2021/12/02 04:24:57;;;;;;;8.63;5.60;;;9.30;70.30;;;;;;1082076;47;20060;-71
2021/12/02 04:26:40;;;;;;;11.30;6.18;;;9.30;70.30;;;;;;1081955;46;20057;-72
2021/12/02 04:28:21;;;;;;;9.68;6.18;;;9.30;70.40;;;;;;1082265;46;20057;-75
2021/12/02 04:30:07;;;;;;;8.57;6.60;;;9.30;70.50;;;;;;1081801;46;20166;-72
2021/12/02 04:31:49;;;;;;;8.95;6.40;;;9.20;70.50;;;;;;1082340;39;20424;-72
2021/12/02 04:33:30;;;;;;;7.32;6.25;;;9.30;70.60;;;;;;1082073;47;20038;-72
2021/12/02 04:35:13;;;;;;;8.18;6.10;;;9.20;71.30;;;;;;1082096;47;20030;-71
2021/12/02 04:36:54;;;;;;;8.18;5.85;;;9.20;70.70;;;;;;1081815;46;20045;-71
2021/12/02 04:38:35;;;;;;;6.70;5.35;;;9.20;70.70;;;;;;1081875;46;20035;-72
2021/12/02 04:40:18;;;;;;;7.47;6.18;;;9.20;70.70;;;;;;1081871;46;20046;-71
2021/12/02 04:42:00;;;;;;;7.78;5.57;;;9.10;70.70;;;;;;1081478;47;20550;-72
2021/12/02 04:43:41;;;;;;;7.55;5.82;;;9.10;70.60;;;;;;1082428;39;20504;-71
2021/12/02 04:45:22;;;;;;;6.80;5.57;;;9.10;70.70;;;;;;1081540;46;20044;-71
2021/12/02 04:47:04;;;;;;;9.00;5.13;;;9.10;70.70;;;;;;1081561;46;20041;-74
2021/12/02 04:48:45;;;;;;;6.20;5.10;;;9.10;71.40;;;;;;1081705;46;20058;-71
2021/12/02 04:50:27;;;;;;;11.55;5.68;;;9.10;70.70;;;;;;1082123;39;20451;-72
2021/12/02 04:52:09;;;;;;;8.05;5.30;;;9.00;70.60;;;;;;1081720;47;20562;-72
2021/12/02 04:53:50;;;;;;;10.23;5.60;;;9.10;70.70;;;;;;1081895;46;20038;-73
2021/12/02 04:55:32;;;;;;;8.82;5.28;;;9.00;70.60;;;;;;1081800;46;20137;-73
2021/12/02 04:57:13;;;;;;;7.95;5.30;;;9.00;70.70;;;;;;1081320;46;20046;-73
2021/12/02 04:58:54;;;;;;;6.82;4.97;;;9.00;70.80;;;;;;1081532;54;20038;-73
2021/12/02 05:00:35;;;;;;;8.27;4.75;;;9.00;70.90;;;;;;1081704;47;20065;-71
2021/12/02 05:02:17;;;;;;;6.63;4.70;;;9.00;70.90;;;;;;1081618;46;20058;-73
2021/12/02 05:03:58;;;;;;;10.57;5.22;;;9.00;70.90;;;;;;1081884;46;20147;-72
2021/12/02 05:05:39;;;;;;;6.68;4.38;;;9.00;70.90;;;;;;1081692;46;20034;-72
2021/12/02 05:07:20;;;;;;;7.70;4.30;;;9.00;71.00;;;;;;1081398;46;20038;-72
2021/12/02 05:09:03;;;;;;;5.78;4.05;;;9.00;71.00;;;;;;1081508;47;20095;-74
2021/12/02 05:10:44;;;;;;;3.70;3.40;;;8.90;71.00;;;;;;1081941;47;20053;-72
2021/12/02 05:12:25;;;;;;;5.18;3.47;;;8.90;71.10;;;;;;1082159;39;20553;-71
2021/12/02 05:14:08;;;;;;;5.88;2.80;;;9.00;71.20;;;;;;1081896;46;20158;-74
2021/12/02 05:15:49;;;;;;;5.78;2.65;;;9.00;71.20;;;;;;1081997;46;20046;-73
2021/12/02 05:17:31;;;;;;;6.78;2.30;;;8.90;71.20;;;;;;1081452;47;20042;-74
2021/12/02 05:19:12;;;;;;;3.13;2.40;;;9.00;71.30;;;;;;1082013;47;20039;-71
2021/12/02 05:20:53;;;;;;;4.53;2.28;;;8.90;71.20;;;;;;1082124;47;20038;-75
2021/12/02 05:22:34;;;;;;;4.13;2.38;;;9.00;71.30;;;;;;1081979;46;20133;-72
2021/12/02 05:24:16;;;;;;;4.40;2.00;;;9.00;71.30;;;;;;1081893;46;20055;-72
2021/12/02 05:25:57;;;;;;;2.72;2.00;;;9.00;71.10;;;;;;1082051;47;20085;-72
2021/12/02 05:27:38;;;;;;;3.97;2.00;;;8.90;71.00;;;;;;1081695;47;20034;-72
2021/12/02 05:29:20;;;;;;;2.75;2.00;;;9.00;71.00;;;;;;1081949;46;20058;-71
2021/12/02 05:31:01;;;;;;;2.03;1.80;;;8.90;70.80;;;;;;1081710;47;20153;-73
2021/12/02 05:32:43;;;;;;;7.22;2.22;;;8.90;70.70;;;;;;1082291;39;20420;-72
2021/12/02 05:34:24;;;;;;;2.25;1.90;;;9.00;70.70;;;;;;1081806;47;20045;-71
2021/12/02 05:36:05;;;;;;;4.15;2.28;;;8.90;70.60;;;;;;1082132;47;20081;-71
2021/12/02 05:37:46;;;;;;;3.90;1.70;;;8.90;70.60;;;;;;1081209;47;20053;-71
2021/12/02 05:39:28;;;;;;;1.58;1.48;;;8.90;70.50;;;;;;1081995;47;20038;-72
2021/12/02 05:41:10;;;;;;;2.78;1.52;;;9.00;70.60;;;;;;1081432;47;20130;-71
2021/12/02 05:42:51;;;;;;;2.30;1.60;;;8.90;70.40;;;;;;1082161;46;20042;-71
2021/12/02 05:44:32;;;;;;;1.92;1.55;;;8.90;70.30;;;;;;1081164;46;20554;-70
2021/12/02 05:46:13;;;;;;;3.33;1.35;;;8.90;70.20;;;;;;1082222;47;20813;-72
2021/12/02 05:47:55;;;;;;;2.10;1.38;;;8.90;70.00;;;;;;1081925;39;20461;-71
2021/12/02 05:49:36;;;;;;;2.10;1.10;;;8.90;70.00;;;;;;1082009;46;20042;-71
2021/12/02 05:51:18;;;;;;;2.13;1.15;;;8.90;69.80;;;;;;1081836;47;20038;-71
2021/12/02 05:52:59;;;;;;;2.00;1.10;;;8.90;69.80;;;;;;1082235;39;20415;-72
2021/12/02 05:54:40;;;;;;;2.20;1.05;;;8.90;69.70;;;;;;1081467;47;20034;-72
2021/12/02 05:56:21;;;;;;;0.85;0.85;;;8.90;69.80;;;;;;1082026;46;20179;-74
2021/12/02 05:58:03;;;;;;;1.80;1.10;;;8.90;69.70;;;;;;1081670;46;20034;-71
2021/12/02 05:59:45;;;;;;;1.30;1.20;;;8.90;69.50;;;;;;1081869;46;20034;-72
2021/12/02 06:01:26;;;;;;;1.58;1.33;;;8.90;69.50;;;;;;1081941;46;20042;-72
2021/12/02 06:03:08;;;;;;;1.20;1.10;;;8.80;69.50;;;;;;1082321;46;20026;-74
2021/12/02 06:04:52;;;;;;;1.83;1.17;;;8.80;69.50;;;;;;1082042;46;20042;-72
2021/12/02 06:06:33;;;;;;;3.03;1.58;;;8.80;69.50;;;;;;1081214;47;21080;-76
2021/12/02 06:08:15;;;;;;;2.10;1.73;;;8.80;69.50;;;;;;1082353;46;20034;-71
2021/12/02 06:09:56;;;;;;;1.95;1.80;;;8.80;69.50;;;;;;1081949;46;20035;-75
2021/12/02 06:11:38;;;;;;;3.42;2.47;;;8.80;69.50;;;;;;1082182;46;20035;-72
2021/12/02 06:13:19;;;;;;;3.75;2.30;;;8.80;69.60;;;;;;1082507;46;20129;-74
2021/12/02 06:15:00;;;;;;;2.88;1.75;;;8.80;69.60;;;;;;1082417;46;20034;-73
2021/12/02 06:16:42;;;;;;;4.25;2.50;;;8.70;69.50;;;;;;1082162;46;20170;-72
2021/12/02 06:18:23;;;;;;;4.63;2.75;;;8.70;69.50;;;;;;1082723;39;20820;-73
2021/12/02 06:20:06;;;;;;;2.33;2.00;;;8.70;69.50;;;;;;1082210;46;20046;-75
2021/12/02 06:21:50;;;;;;;2.97;2.10;;;8.70;69.60;;;;;;1082078;46;20816;-74
2021/12/02 06:23:31;;;;;;;3.80;2.13;;;8.70;69.70;;;;;;1082080;46;20045;-73
2021/12/02 06:26:56;;;;;;;5.38;4.30;;;8.60;69.80;;;;;;1082101;46;20065;-72
2021/12/02 06:28:37;;;;;;;6.57;2.85;;;8.60;70.00;;;;;;1082079;46;20562;-72
2021/12/02 06:30:21;;;;;;;3.53;2.42;;;8.60;70.10;;;;;;1082255;46;20038;-74
2021/12/02 06:32:04;;;;;;;3.65;2.20;;;8.60;70.20;;;;;;1081296;47;20045;-73
2021/12/02 06:33:45;;;;;;;4.28;1.80;;;8.60;70.40;;;;;;1081967;46;20618;-75
2021/12/02 06:35:28;;;;;;;7.25;2.72;;;8.60;70.50;;;;;;1082039;46;20050;-73
2021/12/02 06:37:09;;;;;;;2.55;1.95;;;8.60;70.60;;;;;;1080924;46;20595;-72
2021/12/02 06:38:50;;;;;;;2.78;1.67;;;8.60;70.60;;;;;;1081669;46;20042;-74
2021/12/02 06:40:34;;;;;;;2.88;1.80;;;8.60;70.70;;;;;;1081998;46;20038;-74
2021/12/02 06:42:15;;;;;;;4.05;2.05;;;8.60;70.80;;;;;;1081359;47;20034;-71
2021/12/02 06:43:56;;;;;;;4.63;1.70;;;8.60;70.70;;;;;;1082002;46;20058;-73
2021/12/02 06:45:39;;;;;;;4.38;2.00;;;8.70;70.90;;;;;;1081866;47;20054;-72
2021/12/02 06:47:26;;;;;;;2.85;1.50;;;8.60;70.90;;;;;;1081473;47;20141;-73
2021/12/02 06:49:07;;;;;;;2.40;1.50;;;8.70;70.90;;;;;;1081818;47;20863;-71
2021/12/02 06:50:48;;;;;;;1.52;1.42;;;8.70;70.90;;;;;;1081586;46;20065;-73
2021/12/02 06:52:31;;;;;;;1.88;1.50;;;8.70;71.00;;;;;;1081548;54;20075;-72
2021/12/02 06:54:14;;;;;;;1.88;1.38;;;8.70;70.90;;;;;;1081841;47;20039;-75
2021/12/02 06:55:55;;;;;;;1.35;1.25;;;8.70;70.90;;;;;;1081821;46;20051;-73
2021/12/02 06:57:37;;;;;;;1.85;1.42;;;8.70;70.70;;;;;;1081637;46;20038;-73
2021/12/02 06:59:19;;;;;;;1.20;1.20;;;8.70;70.60;;;;;;1081801;46;20071;-74
2021/12/02 07:01:00;;;;;;;1.17;1.10;;;8.70;70.60;;;;;;1080619;46;20041;-74
2021/12/02 07:02:42;;;;;;;2.78;1.23;;;8.70;70.40;;;;;;1081405;46;20918;-73
2021/12/02 07:04:23;;;;;;;1.58;1.30;;;8.80;70.40;;;;;;1081351;47;20038;-73
2021/12/02 07:06:05;;;;;;;3.40;1.40;;;8.80;70.40;;;;;;1081301;46;20558;-73
2021/12/02 07:07:47;;;;;;;1.55;1.10;;;8.80;70.30;;;;;;1081560;46;20034;-70
2021/12/02 07:09:28;;;;;;;2.28;1.27;;;8.70;70.20;;;;;;1081341;46;20045;-72
2021/12/02 07:11:10;;;;;;;2.72;1.30;;;8.80;70.30;;;;;;1082002;46;20133;-74
2021/12/02 07:12:56;;;;;;;1.80;1.10;;;8.80;70.30;;;;;;1081179;47;20045;-72
2021/12/02 07:14:37;;;;;;;4.50;1.88;;;8.80;70.30;;;;;;1081827;47;20038;-75
2021/12/02 07:16:20;;;;;;;1.63;1.38;;;8.80;70.30;;;;;;1082039;39;20423;-72
2021/12/02 07:18:02;;;;;;;1.27;1.27;;;8.80;70.30;;;;;;1081519;46;20035;-71
2021/12/02 07:19:43;;;;;;;3.45;1.58;;;8.80;70.30;;;;;;1081411;47;20046;-72
2021/12/02 07:21:25;;;;;;;2.95;1.80;;;8.80;70.30;;;;;;1081781;46;20550;-71
2021/12/02 07:23:06;;;;;;;3.35;1.60;;;8.80;70.30;;;;;;1081600;39;20435;-71
2021/12/02 07:24:48;;;;;;;2.45;1.50;;;8.80;70.20;;;;;;1081772;47;20061;-71
2021/12/02 07:26:35;;;;;;;1.88;1.65;;;8.80;70.10;;;;;;1082457;31;20485;-71
2021/12/02 07:28:17;;;;;;;1.40;1.20;;;8.80;70.10;;;;;;1081769;47;20042;-72
2021/12/02 07:29:58;;;;;;;2.67;1.60;;;8.80;70.20;;;;;;1081564;47;20034;-71
2021/12/02 07:31:40;;;;;;;1.73;1.50;;;8.80;70.20;;;;;;1081423;54;20058;-71
2021/12/02 07:33:26;;;;;;;1.58;1.45;;;8.80;70.10;;;;;;1081232;46;20575;-72
2021/12/02 07:35:11;;;;;;;1.45;1.27;;;8.80;70.00;;;;;;1081781;46;20046;-72
2021/12/02 07:36:55;;;;;;;2.03;1.40;;;8.80;69.80;;;;;;1081253;46;20034;-73
2021/12/02 07:38:38;;;;;;;1.83;1.55;;;8.80;69.80;;;;;;1081086;47;20043;-72
2021/12/02 07:40:21;;;;;;;1.50;1.40;;;8.80;69.80;;;;;;1081681;46;20034;-71
2021/12/02 07:42:03;;;;;;;2.53;1.60;;;8.80;69.80;;;;;;1081189;47;20039;-71
2021/12/02 07:43:44;;;;;;;2.75;1.70;;;8.70;69.70;;;;;;1081330;54;20046;-72
2021/12/02 07:45:31;;;;;;;1.52;1.33;;;8.70;69.70;;;;;;1081492;46;20038;-72
2021/12/02 07:47:13;;;;;;;2.33;1.85;;;8.70;69.70;;;;;;1080973;47;20141;-73
2021/12/02 07:48:55;;;;;;;2.83;1.90;;;8.70;69.70;;;;;;1081699;46;20034;-74
2021/12/02 07:50:36;;;;;;;3.38;2.38;;;8.70;69.90;;;;;;1081812;46;20043;-73
2021/12/02 07:52:24;;;;;;;2.15;2.05;;;8.70;69.90;;;;;;1081627;46;20061;-71
2021/12/02 07:54:06;;;;;;;5.78;2.30;;;8.70;70.00;;;;;;1081492;46;20026;-71
2021/12/02 07:55:51;;;;;;;2.60;2.40;;;8.70;70.10;;;;;;1081683;39;20434;-72
2021/12/02 07:57:40;;;;;;;2.00;1.90;;;8.60;70.00;;;;;;1081298;46;20045;-72
2021/12/02 07:59:22;;;;;;;2.40;1.73;;;8.60;70.00;;;;;;1082148;39;20474;-73
2021/12/02 08:01:03;;;;;;;2.20;2.00;;;8.60;70.10;;;;;;1081372;46;20125;-72
2021/12/02 08:02:46;;;;;;;2.05;1.90;;;8.60;70.20;;;;;;1081414;54;20041;-73
2021/12/02 08:04:28;;;;;;;3.22;2.03;;;8.70;70.20;;;;;;1081097;47;20066;-72
2021/12/02 08:06:11;;;;;;;2.08;1.80;;;8.70;70.20;;;;;;1081809;47;20035;-71
2021/12/02 08:07:54;;;;;;;2.35;2.03;;;8.60;70.10;;;;;;1081030;46;20038;-73
2021/12/02 08:09:35;;;;;;;2.10;1.80;;;8.70;70.20;;;;;;1080654;47;20038;-72
2021/12/02 08:11:16;;;;;;;1.98;1.88;;;8.70;70.10;;;;;;1081693;39;20890;-75
2021/12/02 08:13:00;;;;;;;4.15;2.22;;;8.60;70.80;;;;;;1081686;46;20118;-74
2021/12/02 08:14:41;;;;;;;2.45;1.90;;;8.60;70.10;;;;;;1081631;46;20058;-73
2021/12/02 08:16:23;;;;;;;2.67;2.10;;;8.60;70.10;;;;;;1081723;46;20034;-72
2021/12/02 08:18:04;;;;;;;2.22;2.13;;;8.70;70.40;;;;;;1081423;39;20427;-71
2021/12/02 08:19:45;;;;;;;1.63;1.63;;;8.60;70.00;;;;;;1081624;47;20038;-71
2021/12/02 08:21:27;;;;;;;2.42;2.28;;;8.60;69.90;;;;;;1081708;46;20172;-74
2021/12/02 08:23:08;;;;;;;2.15;1.95;;;8.60;69.90;;;;;;1081618;46;20035;-71
2021/12/02 08:24:49;;;;;;;2.42;2.00;;;8.60;69.90;;;;;;1081670;46;20034;-75
2021/12/02 08:26:31;;;;;;;2.55;2.35;;;8.60;70.00;;;;;;1081643;47;20031;-73
2021/12/02 08:28:12;;;;;;;2.28;2.17;;;8.60;70.00;;;;;;1081450;46;20045;-71
2021/12/02 08:29:54;;;;;;;2.33;2.10;;;8.60;70.00;;;;;;1081529;46;20129;-72
2021/12/02 08:31:35;;;;;;;2.70;2.10;;;8.60;70.00;;;;;;1081839;39;20136;-71
2021/12/02 08:33:18;;;;;;;2.55;2.35;;;8.60;70.00;;;;;;1081856;46;20061;-72
2021/12/02 08:35:00;;;;;;;2.50;2.33;;;8.60;70.10;;;;;;1081359;46;20037;-73
2021/12/02 08:39:28;;;;;;;2.10;1.90;;;8.60;70.00;;;;;;1077215;46;20030;-75
2021/12/02 08:41:11;;;;;;;;;;;8.60;70.20;;;;;;1080770;46;20034;-73
2021/12/02 08:42:52;;;;;;;2.17;1.90;;;8.60;70.20;;;;;;1080479;47;20030;-72
2021/12/02 08:44:37;;;;;;;1.90;1.80;;;8.70;70.50;;;;;;1080653;46;20034;-74
2021/12/02 08:46:21;;;;;;;2.28;2.10;;;8.70;70.30;;;;;;1080826;46;20158;-71
2021/12/02 08:48:04;;;;;;;2.83;2.20;;;8.70;70.50;;;;;;1080793;47;20137;-73
2021/12/02 08:49:46;;;;;;;2.47;2.20;;;8.70;70.70;;;;;;1080480;36;20034;-72
2021/12/02 08:51:28;;;;;;;2.90;1.98;;;8.70;70.90;;;;;;1080800;46;20034;-71
2021/12/02 08:53:10;;;;;;;2.72;2.50;;;8.70;71.00;;;;;;1080899;47;20122;-73
2021/12/02 08:54:52;;;;;;;3.33;2.53;;;8.80;71.00;;;;;;1080691;47;20172;-72
2021/12/02 08:56:34;;;;;;;2.92;2.40;;;8.80;70.90;;;;;;1081146;31;20516;-74
2021/12/02 08:58:16;;;;;;;3.40;3.15;;;8.80;70.80;;;;;;1081156;47;20070;-76
2021/12/02 08:59:57;;;;;;;3.38;3.17;;;8.80;70.70;;;;;;1081508;46;20041;-72
2021/12/02 09:01:38;;;;;;;3.30;3.00;;;8.80;70.40;;;;;;1081336;46;20035;-71
2021/12/02 09:03:20;;;;;;;4.10;3.13;;;8.90;70.40;;;;;;1081540;39;20680;-71
2021/12/02 09:05:02;;;;;;;4.38;3.00;;;8.90;70.40;;;;;;1081768;47;20044;-72
2021/12/02 09:06:43;;;;;;;2.95;2.75;;;8.90;70.50;;;;;;1080917;46;20125;-72
2021/12/02 09:08:25;;;;;;;3.00;2.80;;;8.90;70.40;;;;;;1081352;47;20034;-72
2021/12/02 09:10:08;;;;;;;3.35;3.13;;;8.90;70.30;;;;;;1081219;39;20196;-72
2021/12/02 09:11:49;;;;;;;4.22;3.40;;;8.90;70.10;;;;;;1081433;47;20035;-70
2021/12/02 09:13:31;;;;;;;3.92;2.85;;;9.00;70.10;;;;;;1081846;39;20437;-73
2021/12/02 09:15:13;;;;;;;2.90;2.70;;;9.00;69.90;;;;;;1081469;47;20038;-71
2021/12/02 09:16:55;;;;;;;3.13;2.60;;;9.00;69.60;;;;;;1081345;46;20065;-73
2021/12/02 09:18:36;;;;;;;2.90;2.70;;;9.00;69.40;;;;;;1081768;46;20555;-72
2021/12/02 09:20:17;;;;;;;3.13;2.85;;;9.00;69.30;;;;;;1081829;47;20042;-71
2021/12/02 09:22:02;;;;;;;2.40;2.30;;;9.00;69.30;;;;;;1081237;54;20038;-75
2021/12/02 09:23:44;;;;;;;2.88;2.67;;;8.90;69.10;;;;;;1081311;47;20511;-71
2021/12/02 09:25:25;;;;;;;2.80;2.33;;;8.90;69.10;;;;;;1081415;47;20563;-72
2021/12/02 09:27:06;;;;;;;2.75;2.30;;;8.90;69.00;;;;;;1080742;47;20057;-72
2021/12/02 09:28:52;;;;;;;2.38;2.20;;;8.90;69.00;;;;;;1081182;47;20046;-71
2021/12/02 09:30:35;;;;;;;3.88;2.63;;;8.90;69.10;;;;;;1081494;47;20576;-73
2021/12/02 09:32:16;;;;;;;2.45;2.25;;;8.90;69.10;;;;;;1081257;47;20045;-73
2021/12/02 09:33:58;;;;;;;4.35;2.58;;;8.90;69.00;;;;;;1081024;47;20170;-72
2021/12/02 09:35:39;;;;;;;2.40;2.20;;;8.90;68.90;;;;;;1081437;47;20137;-73
2021/12/02 09:37:20;;;;;;;2.42;2.22;;;8.90;69.00;;;;;;1080614;47;20035;-72
2021/12/02 09:39:04;;;;;;;2.40;2.20;;;8.90;69.30;;;;;;1081066;47;20134;-72
2021/12/02 09:40:46;;;;;;;3.55;2.22;;;8.90;69.30;;;;;;1081327;47;20038;-72
2021/12/02 09:42:27;;;;;;;2.50;2.40;;;8.90;69.30;;;;;;1081705;39;20528;-72
2021/12/02 09:44:09;;;;;;;2.85;2.22;;;9.00;69.90;;;;;;1081439;47;20039;-72
2021/12/02 09:45:50;;;;;;;2.33;2.15;;;9.10;70.80;;;;;;1080498;47;20034;-71
2021/12/02 09:47:35;;;;;;;2.50;2.30;;;9.20;72.00;;;;;;1081181;47;20038;-72
2021/12/02 09:49:16;;;;;;;2.72;2.25;;;9.30;71.30;;;;;;1081250;47;20034;-72
2021/12/02 09:51:10;;;;;;;2.00;1.90;;;9.50;72.00;;;;;;1080739;47;22436;-74
2021/12/02 09:52:53;;;;;;;1.92;1.83;;;9.60;72.60;;;;;;1081459;47;20041;-73
2021/12/02 09:54:41;;;;;;;2.67;1.80;;;9.90;72.60;;;;;;1081038;47;20038;-72
2021/12/02 09:56:33;;;;;;;3.08;1.75;;;10.10;71.30;;;;;;1080954;47;20657;-70
2021/12/02 09:58:23;;;;;;;4.10;1.80;;;10.20;70.00;;;;;;1081100;47;20572;-71
2021/12/02 10:00:06;;;;;;;1.83;1.73;;;10.30;69.80;;;;;;1081582;39;20462;-72
2021/12/02 10:01:51;;;;;;;1.90;1.55;;;10.40;69.50;;;;;;1080872;47;20035;-71
2021/12/02 10:03:35;;;;;;;2.65;1.70;;;10.50;69.30;;;;;;1081064;47;20121;-73
2021/12/02 10:05:27;;;;;;;2.13;2.00;;;10.70;69.60;;;;;;1081424;47;20072;-72
2021/12/02 10:09:21;;;;;;;3.22;2.20;;;11.00;69.30;;;;;;1080768;47;20043;-75
2021/12/02 10:11:06;;;;;;;2.50;2.30;;;11.20;68.80;;;;;;1081453;47;20066;-73
2021/12/02 10:13:18;;;;;;;3.53;2.17;;;11.40;70.00;;;;;;1081338;47;20033;-71
2021/12/02 10:15:02;;;;;;;3.25;2.15;;;11.70;67.40;;;;;;1081653;47;21035;-74
2021/12/02 10:16:45;;;;;;;3.38;2.20;;;11.80;69.70;;;;;;1081008;47;20055;-71
2021/12/02 10:18:34;;;;;;;2.20;2.03;;;12.10;70.10;;;;;;1081511;47;20078;-73
2021/12/02 10:23:47;;;;;;;2.47;2.15;;;12.70;68.90;;;;;;1081080;47;20030;-72
2021/12/02 10:25:31;;;;;;;2.95;2.20;;;12.80;67.90;;;;;;1080929;47;20034;-73
2021/12/02 10:27:13;;;;;;;2.70;2.00;;;13.00;66.40;;;;;;1081765;31;20511;-74